createdAt,value
2022-11-08T00:02:30.513Z,2.63
2022-11-08T00:07:11.053Z,2.67
2022-11-08T00:11:52.451Z,2.22
2022-11-08T00:16:14.186Z,2.80
2022-11-08T00:20:36.063Z,2.65
2022-11-08T00:24:58.430Z,2.67
2022-11-08T00:29:20.025Z,3.00
2022-11-08T00:33:41.899Z,2.72
2022-11-08T00:38:04.721Z,2.85
2022-11-08T00:42:26.394Z,3.05
2022-11-08T00:46:49.060Z,2.80
2022-11-08T00:51:12.192Z,3.20
2022-11-08T00:55:33.764Z,2.55
2022-11-08T00:59:55.544Z,2.50
2022-11-08T01:04:19.610Z,2.72
2022-11-08T01:08:42.263Z,2.38
2022-11-08T01:13:04.081Z,2.42
2022-11-08T01:17:25.635Z,2.90
2022-11-08T01:21:47.415Z,2.25
2022-11-08T01:26:14.611Z,2.13
2022-11-08T01:30:38.938Z,2.60
2022-11-08T01:35:00.928Z,2.50
2022-11-08T01:39:22.683Z,2.00
2022-11-08T01:43:47.117Z,2.58
2022-11-08T01:48:08.873Z,2.40
2022-11-08T01:52:39.881Z,2.45
2022-11-08T01:57:05.348Z,2.63
2022-11-08T02:01:26.964Z,2.08
2022-11-08T02:05:49.060Z,2.40
2022-11-08T02:10:12.026Z,2.25
2022-11-08T02:14:34.544Z,2.42
2022-11-08T02:18:56.371Z,2.85
2022-11-08T02:23:43.094Z,2.60
2022-11-08T02:28:05.218Z,3.33
2022-11-08T02:32:26.882Z,3.15
2022-11-08T02:36:49.662Z,3.42
2022-11-08T02:41:11.529Z,3.20
2022-11-08T02:45:33.204Z,2.90
2022-11-08T02:49:55.108Z,3.40
2022-11-08T02:54:17.023Z,3.05
2022-11-08T02:58:38.982Z,3.20
2022-11-08T03:03:00.987Z,4.15
2022-11-08T03:07:24.930Z,4.22
2022-11-08T03:11:47.065Z,3.72
2022-11-08T03:16:09.213Z,3.35
2022-11-08T03:20:33.013Z,3.40
2022-11-08T03:24:55.096Z,4.07
2022-11-08T03:29:16.994Z,3.50
2022-11-08T03:33:39.167Z,3.05
2022-11-08T03:38:00.888Z,4.43
2022-11-08T03:42:22.987Z,5.88
2022-11-08T03:46:44.925Z,3.70
2022-11-08T03:51:06.868Z,4.25
2022-11-08T03:55:28.995Z,3.75
2022-11-08T03:59:50.952Z,4.03
2022-11-08T04:04:12.851Z,4.57
2022-11-08T04:08:34.718Z,10.15
2022-11-08T04:13:19.154Z,6.47
2022-11-08T04:18:07.438Z,8.60
2022-11-08T04:22:29.035Z,17.98
2022-11-08T04:26:51.127Z,9.10
2022-11-08T04:31:15.656Z,11.20
2022-11-08T04:35:37.102Z,5.90
2022-11-08T04:39:58.929Z,5.72
2022-11-08T04:44:20.774Z,5.00
2022-11-08T04:48:44.660Z,4.28
2022-11-08T04:53:06.513Z,3.85
2022-11-08T04:57:29.170Z,4.25
2022-11-08T05:01:50.750Z,4.95
2022-11-08T05:06:25.780Z,4.22
2022-11-08T05:10:47.314Z,6.15
2022-11-08T05:15:09.936Z,6.05
2022-11-08T05:19:50.658Z,12.90
2022-11-08T05:24:16.293Z,6.90
2022-11-08T05:28:37.925Z,5.57
2022-11-08T05:32:59.876Z,5.28
2022-11-08T05:37:21.734Z,5.32
2022-11-08T05:41:43.557Z,5.30
2022-11-08T05:46:09.463Z,5.80
2022-11-08T05:50:35.674Z,5.82
2022-11-08T05:55:00.467Z,5.70
2022-11-08T05:59:22.664Z,5.20
2022-11-08T06:03:45.906Z,5.55
2022-11-08T06:08:07.677Z,5.82
2022-11-08T06:12:29.737Z,6.60
2022-11-08T06:16:51.657Z,5.38
2022-11-08T06:21:17.327Z,6.57
2022-11-08T06:25:39.623Z,7.35
2022-11-08T06:30:04.381Z,8.90
2022-11-08T06:34:26.391Z,8.88
2022-11-08T06:38:48.404Z,8.15
2022-11-08T06:43:19.383Z,8.85
2022-11-08T06:47:41.779Z,10.73
2022-11-08T06:52:04.309Z,9.30
2022-11-08T06:56:26.314Z,5.38
2022-11-08T07:00:47.999Z,3.97
2022-11-08T07:05:11.706Z,3.42
2022-11-08T07:09:33.546Z,4.35
2022-11-08T07:13:55.173Z,4.18
2022-11-08T07:18:19.799Z,3.40
2022-11-08T07:22:41.744Z,3.42
2022-11-08T07:27:03.919Z,3.33
2022-11-08T07:31:25.937Z,2.53
2022-11-08T07:35:47.874Z,2.70
2022-11-08T07:40:10.887Z,3.00
2022-11-08T07:44:32.716Z,3.22
2022-11-08T07:48:54.600Z,3.50
2022-11-08T07:53:16.870Z,3.17
2022-11-08T07:57:38.904Z,2.83
2022-11-08T08:02:00.988Z,2.75
2022-11-08T08:06:24.409Z,2.50
2022-11-08T08:10:46.531Z,2.65
2022-11-08T08:15:09.213Z,2.10
2022-11-08T08:19:30.859Z,2.47
2022-11-08T08:23:52.782Z,2.10
2022-11-08T08:28:14.853Z,2.22
2022-11-08T08:32:36.761Z,2.20
2022-11-08T08:36:58.707Z,2.60
2022-11-08T08:41:21.075Z,2.10
2022-11-08T08:45:43.745Z,2.35
2022-11-08T08:50:06.238Z,2.22
2022-11-08T08:54:29.575Z,1.88
2022-11-08T09:03:36.093Z,2.00
2022-11-08T09:07:58.373Z,1.90
2022-11-08T09:12:20.230Z,1.83
2022-11-08T09:16:42.246Z,1.95
2022-11-08T09:21:04.494Z,1.73
2022-11-08T09:25:26.298Z,1.98
2022-11-08T09:29:48.678Z,2.17
2022-11-08T09:34:10.639Z,1.92
2022-11-08T09:38:33.443Z,2.15
2022-11-08T09:43:16.908Z,1.58
2022-11-08T09:47:43.175Z,1.40
2022-11-08T09:52:06.267Z,1.63
2022-11-08T09:56:39.839Z,1.15
2022-11-08T10:01:03.431Z,1.90
2022-11-08T10:05:28.382Z,1.10
2022-11-08T10:10:51.337Z,1.25
2022-11-08T10:15:58.934Z,1.20
2022-11-08T10:20:39.096Z,1.00
2022-11-08T10:25:05.909Z,1.25
2022-11-08T10:29:36.749Z,1.05
2022-11-08T10:34:00.799Z,1.23
2022-11-08T10:38:31.175Z,1.30
2022-11-08T10:43:09.727Z,1.25
2022-11-08T10:47:34.079Z,1.30
2022-11-08T10:52:01.783Z,1.65
2022-11-08T10:56:24.928Z,1.38
2022-11-08T11:01:14.618Z,1.50
2022-11-08T11:05:55.092Z,1.20
2022-11-08T11:10:31.799Z,0.85
2022-11-08T11:14:59.055Z,0.93
2022-11-08T11:19:21.309Z,1.42
2022-11-08T11:23:53.456Z,1.90
2022-11-08T11:28:15.998Z,1.00
2022-11-08T11:32:40.022Z,1.20
2022-11-08T11:37:26.051Z,0.95
2022-11-08T11:42:31.190Z,0.88
2022-11-08T11:47:02.971Z,0.95
2022-11-08T11:51:29.225Z,1.52
2022-11-08T11:56:18.384Z,1.15
2022-11-08T12:00:49.145Z,1.58
2022-11-08T12:05:43.898Z,1.42
2022-11-08T12:10:17.863Z,1.10
2022-11-08T12:15:03.112Z,1.35
2022-11-08T12:19:36.854Z,1.20
2022-11-08T12:24:15.680Z,1.20
2022-11-08T12:28:52.428Z,1.25
2022-11-08T12:33:44.761Z,1.60
2022-11-08T12:38:35.501Z,2.05
2022-11-08T12:43:42.442Z,1.15
2022-11-08T12:48:34.177Z,1.20
2022-11-08T12:53:43.048Z,1.00
2022-11-08T12:58:33.933Z,1.40
2022-11-08T13:03:07.325Z,1.00
2022-11-08T13:07:30.476Z,1.13
2022-11-08T13:12:17.016Z,1.08
2022-11-08T13:16:42.436Z,1.63
2022-11-08T13:21:27.559Z,1.10
2022-11-08T13:25:51.308Z,1.45
2022-11-08T13:30:16.222Z,1.38
2022-11-08T13:35:03.571Z,1.10
2022-11-08T13:39:55.412Z,1.20
2022-11-08T13:44:59.794Z,1.27
2022-11-08T13:49:22.764Z,1.05
2022-11-08T13:54:01.263Z,1.02
2022-11-08T13:58:42.763Z,1.58
2022-11-08T14:03:33.272Z,1.25
2022-11-08T14:08:12.411Z,1.00
2022-11-08T14:13:22.839Z,1.10
2022-11-08T14:17:53.759Z,1.25
2022-11-08T14:22:30.436Z,1.60
2022-11-08T14:26:53.313Z,1.73
2022-11-08T14:31:34.738Z,1.80
2022-11-08T14:36:13.692Z,1.63
2022-11-08T14:40:36.036Z,1.85
2022-11-08T14:44:58.914Z,1.40
2022-11-08T14:49:30.991Z,1.73
2022-11-08T14:53:56.629Z,2.00
2022-11-08T14:58:18.529Z,2.28
2022-11-08T15:02:44.534Z,2.20
2022-11-08T15:07:09.644Z,1.85
2022-11-08T15:11:34.712Z,2.60
2022-11-08T15:16:03.756Z,2.13
2022-11-08T15:20:26.043Z,1.90
2022-11-08T15:24:48.444Z,2.05
2022-11-08T15:29:13.551Z,2.17
2022-11-08T15:33:38.384Z,2.00
2022-11-08T15:38:26.580Z,2.05
2022-11-08T15:42:51.867Z,2.60
2022-11-08T15:47:37.155Z,2.55
2022-11-08T15:51:59.143Z,2.80
2022-11-08T15:56:21.665Z,2.53
2022-11-08T16:00:49.124Z,2.63
2022-11-08T16:05:31.815Z,3.00
2022-11-08T16:09:54.591Z,3.03
2022-11-08T16:14:24.221Z,2.67
2022-11-08T16:18:46.241Z,2.80
2022-11-08T16:23:11.049Z,2.63
2022-11-08T16:27:32.683Z,2.60
2022-11-08T16:31:55.440Z,3.05
2022-11-08T16:36:21.543Z,3.38
2022-11-08T16:40:43.615Z,2.90
2022-11-08T16:45:06.169Z,2.50
2022-11-08T16:49:34.185Z,3.03
2022-11-08T16:53:56.397Z,3.08
2022-11-08T16:58:18.531Z,3.15
2022-11-08T17:02:53.040Z,3.97
2022-11-08T17:07:14.991Z,3.40
2022-11-08T17:11:38.641Z,3.38
2022-11-08T17:16:01.199Z,3.20
2022-11-08T17:20:25.138Z,4.15
2022-11-08T17:24:48.622Z,3.85
2022-11-08T17:29:11.005Z,4.90
2022-11-08T17:33:32.930Z,3.90
2022-11-08T17:37:55.330Z,3.72
2022-11-08T17:42:17.760Z,4.63
2022-11-08T17:46:40.548Z,4.10
2022-11-08T17:51:03.546Z,4.40
2022-11-08T17:55:25.531Z,3.63
2022-11-08T17:59:48.337Z,3.20
2022-11-08T18:04:11.361Z,3.10
2022-11-08T18:08:35.326Z,2.63
2022-11-08T18:12:57.419Z,2.65
2022-11-08T18:17:22.465Z,2.67
2022-11-08T18:21:45.144Z,2.90
2022-11-08T18:26:07.515Z,3.03
2022-11-08T18:30:29.467Z,2.85
2022-11-08T18:34:51.389Z,2.35
2022-11-08T18:39:18.136Z,2.60
2022-11-08T18:43:41.529Z,2.88
2022-11-08T18:48:03.623Z,3.15
2022-11-08T18:52:26.135Z,2.92
2022-11-08T18:56:48.082Z,2.80
2022-11-08T19:01:09.792Z,3.00
2022-11-08T19:05:32.900Z,2.70
2022-11-08T19:09:54.612Z,2.35
2022-11-08T19:14:17.113Z,2.65
2022-11-08T19:18:40.653Z,2.72
2022-11-08T19:23:04.251Z,2.83
2022-11-08T19:27:26.366Z,2.67
2022-11-08T19:31:48.070Z,2.17
2022-11-08T19:36:18.088Z,2.40
2022-11-08T19:40:41.938Z,2.70
2022-11-08T19:45:09.424Z,2.65
2022-11-08T19:49:32.332Z,2.58
2022-11-08T19:53:59.840Z,2.42
2022-11-08T19:58:21.795Z,2.53
2022-11-08T20:02:44.568Z,2.95
2022-11-08T20:07:06.734Z,2.78
2022-11-08T20:11:35.878Z,2.30
2022-11-08T20:16:22.105Z,2.83
2022-11-08T20:20:44.449Z,2.40
2022-11-08T20:25:07.212Z,3.20
2022-11-08T20:29:29.533Z,2.10
2022-11-08T20:33:53.899Z,2.50
2022-11-08T20:38:17.213Z,2.35
2022-11-08T20:42:39.815Z,1.83
2022-11-08T20:47:06.207Z,2.45
2022-11-08T20:51:30.798Z,2.40
2022-11-08T20:56:01.719Z,2.20
2022-11-08T21:00:37.956Z,2.17
2022-11-08T21:05:08.930Z,2.90
2022-11-08T21:09:39.414Z,2.53
2022-11-08T21:14:14.914Z,2.53
2022-11-08T21:18:41.511Z,2.33
2022-11-08T21:23:11.884Z,2.38
2022-11-08T21:27:53.496Z,2.40
2022-11-08T21:32:15.560Z,2.47
2022-11-08T21:36:37.673Z,2.78
2022-11-08T21:41:07.926Z,2.85
2022-11-08T21:45:32.602Z,2.80
2022-11-08T21:49:55.200Z,2.53
2022-11-08T21:54:16.867Z,2.40
2022-11-08T21:58:38.918Z,2.58
2022-11-08T22:03:00.875Z,2.30
2022-11-08T22:07:22.792Z,2.75
2022-11-08T22:11:45.277Z,2.80
2022-11-08T22:16:10.309Z,2.92
2022-11-08T22:20:32.289Z,2.58
2022-11-08T22:24:55.710Z,2.30
2022-11-08T22:29:18.560Z,2.28
2022-11-08T22:33:40.563Z,2.40
2022-11-08T22:38:02.476Z,2.45
2022-11-08T22:42:24.549Z,3.20
2022-11-08T22:46:47.889Z,2.67
2022-11-08T22:51:10.330Z,2.15
2022-11-08T22:55:34.773Z,2.60
2022-11-08T22:59:56.566Z,2.60
2022-11-08T23:04:19.016Z,2.67
2022-11-08T23:08:41.581Z,2.47
2022-11-08T23:13:24.910Z,2.20
2022-11-08T23:17:46.686Z,2.15
2022-11-08T23:22:32.676Z,2.60
2022-11-08T23:27:13.469Z,2.47
2022-11-08T23:31:35.616Z,2.25
2022-11-08T23:36:14.552Z,2.33
2022-11-08T23:40:58.463Z,2.35
2022-11-08T23:45:21.541Z,2.45
2022-11-08T23:49:43.553Z,2.53
2022-11-08T23:54:05.643Z,2.20
2022-11-08T23:58:27.717Z,2.67
